createdAt,value
2022-08-05T00:00:02.394Z,75
2022-08-05T00:01:29.054Z,75
2022-08-05T00:02:11.736Z,74
2022-08-05T00:03:06.296Z,74
2022-08-05T00:04:02.119Z,74
2022-08-05T00:05:06.273Z,74
2022-08-05T00:06:29.462Z,75
2022-08-05T00:07:59.466Z,74
2022-08-05T00:08:03.027Z,74
2022-08-05T00:09:03.266Z,75
2022-08-05T00:10:02.053Z,74
2022-08-05T00:11:02.393Z,74
2022-08-05T00:12:02.511Z,74
2022-08-05T00:13:03.336Z,74
2022-08-05T00:14:02.498Z,74
2022-08-05T00:15:57.931Z,73
2022-08-05T00:16:00.994Z,72
2022-08-05T00:17:03.380Z,75
2022-08-05T00:18:02.897Z,76
2022-08-05T00:19:02.035Z,76
2022-08-05T00:20:03.408Z,78
2022-08-05T00:21:02.235Z,77
2022-08-05T00:22:02.227Z,77
2022-08-05T00:23:13.277Z,77
2022-08-05T00:24:11.374Z,77
2022-08-05T00:25:04.870Z,76
2022-08-05T00:26:02.591Z,76
2022-08-05T00:27:10.371Z,76
2022-08-05T00:28:02.554Z,76
2022-08-05T00:29:02.441Z,75
2022-08-05T00:30:03.561Z,76
2022-08-05T00:31:04.845Z,76
2022-08-05T00:32:15.785Z,75
2022-08-05T00:33:01.758Z,75
2022-08-05T00:35:07.042Z,75
2022-08-05T00:35:07.849Z,75
2022-08-05T00:37:09.276Z,75
2022-08-05T00:37:20.246Z,76
2022-08-05T00:38:03.220Z,75
2022-08-05T00:39:02.164Z,75
2022-08-05T00:40:03.203Z,75
2022-08-05T00:41:02.247Z,75
2022-08-05T00:42:03.090Z,76
2022-08-05T00:43:02.405Z,76
2022-08-05T00:44:02.052Z,75
2022-08-05T00:45:02.139Z,75
2022-08-05T00:46:02.844Z,76
2022-08-05T00:47:06.327Z,75
2022-08-05T00:48:06.512Z,75
2022-08-05T00:49:02.893Z,75
2022-08-05T00:50:01.855Z,75
2022-08-05T00:51:52.290Z,75
2022-08-05T00:52:02.004Z,75
2022-08-05T00:53:02.662Z,75
2022-08-05T00:54:03.494Z,76
2022-08-05T00:55:01.954Z,75
2022-08-05T00:56:02.232Z,75
2022-08-05T00:57:02.166Z,75
2022-08-05T00:58:04.993Z,75
2022-08-05T00:59:07.235Z,76
2022-08-05T01:00:02.395Z,76
2022-08-05T01:01:09.195Z,76
2022-08-05T01:02:02.333Z,76
2022-08-05T01:03:08.172Z,76
2022-08-05T01:04:02.303Z,76
2022-08-05T01:05:10.361Z,76
2022-08-05T01:06:05.561Z,76
2022-08-05T01:07:05.486Z,76
2022-08-05T01:08:44.177Z,76
2022-08-05T01:09:03.396Z,76
2022-08-05T01:10:02.095Z,76
2022-08-05T01:11:01.586Z,76
2022-08-05T01:12:19.084Z,76
2022-08-05T01:13:19.289Z,76
2022-08-05T01:14:01.956Z,77
2022-08-05T01:15:05.425Z,77
2022-08-05T01:16:02.441Z,77
2022-08-05T01:17:02.294Z,77
2022-08-05T01:18:02.313Z,77
2022-08-05T01:19:02.137Z,77
2022-08-05T01:20:03.954Z,77
2022-08-05T01:21:02.507Z,77
2022-08-05T01:22:02.644Z,77
2022-08-05T01:23:22.845Z,77
2022-08-05T01:24:14.388Z,77
2022-08-05T01:25:04.892Z,77
2022-08-05T01:26:02.181Z,77
2022-08-05T01:27:19.539Z,78
2022-08-05T01:28:02.632Z,78
2022-08-05T01:29:05.823Z,77
2022-08-05T01:30:01.667Z,78
2022-08-05T01:31:03.264Z,77
2022-08-05T01:32:04.575Z,77
2022-08-05T01:33:02.431Z,78
2022-08-05T01:34:02.338Z,77
2022-08-05T01:35:02.371Z,77
2022-08-05T01:36:02.296Z,77
2022-08-05T01:37:02.121Z,77
2022-08-05T01:38:03.611Z,77
2022-08-05T01:39:03.060Z,77
2022-08-05T01:40:02.476Z,77
2022-08-05T01:41:02.656Z,78
2022-08-05T01:42:02.487Z,78
2022-08-05T01:43:03.907Z,78
2022-08-05T01:44:01.774Z,78
2022-08-05T01:45:03.179Z,78
2022-08-05T01:46:41.845Z,78
2022-08-05T01:47:05.370Z,78
2022-08-05T01:48:02.796Z,78
2022-08-05T01:49:24.749Z,78
2022-08-05T01:50:03.258Z,78
2022-08-05T01:51:13.245Z,79
2022-08-05T01:52:18.217Z,78
2022-08-05T01:53:02.414Z,78
2022-08-05T01:54:02.445Z,78
2022-08-05T01:55:04.824Z,78
2022-08-05T01:56:04.789Z,79
2022-08-05T01:58:15.672Z,78
2022-08-05T01:58:15.826Z,78
2022-08-05T01:59:04.256Z,78
2022-08-05T02:00:02.528Z,78
2022-08-05T02:01:01.741Z,78
2022-08-05T02:02:01.821Z,78
2022-08-05T02:03:04.117Z,78
2022-08-05T02:04:01.934Z,78
2022-08-05T02:05:03.352Z,79
2022-08-05T02:06:33.759Z,78
2022-08-05T02:07:03.805Z,78
2022-08-05T02:08:02.230Z,78
2022-08-05T02:09:02.075Z,79
2022-08-05T02:10:01.981Z,79
2022-08-05T02:11:02.076Z,79
2022-08-05T02:12:01.922Z,79
2022-08-05T02:13:04.907Z,79
2022-08-05T02:14:02.054Z,79
2022-08-05T02:15:03.603Z,79
2022-08-05T02:16:02.937Z,79
2022-08-05T02:17:01.912Z,79
2022-08-05T02:18:35.401Z,79
2022-08-05T02:19:07.375Z,79
2022-08-05T02:20:02.364Z,79
2022-08-05T02:21:02.300Z,79
2022-08-05T02:22:02.119Z,79
2022-08-05T02:23:02.132Z,79
2022-08-05T02:24:02.284Z,79
2022-08-05T02:25:01.648Z,79
2022-08-05T02:26:03.535Z,79
2022-08-05T02:27:57.763Z,79
2022-08-05T02:28:01.114Z,78
2022-08-05T02:29:04.292Z,79
2022-08-05T02:30:02.177Z,79
2022-08-05T02:31:01.823Z,80
2022-08-05T02:32:05.188Z,79
2022-08-05T02:33:02.749Z,80
2022-08-05T02:34:01.594Z,80
2022-08-05T02:35:14.503Z,80
2022-08-05T02:36:02.140Z,81
2022-08-05T02:37:04.743Z,81
2022-08-05T02:38:02.743Z,80
2022-08-05T02:39:02.494Z,80
2022-08-05T02:40:02.611Z,80
2022-08-05T02:41:17.445Z,80
2022-08-05T02:42:01.924Z,80
2022-08-05T02:43:01.867Z,80
2022-08-05T02:44:13.412Z,80
2022-08-05T02:45:02.500Z,79
2022-08-05T02:46:02.504Z,80
2022-08-05T02:47:04.318Z,79
2022-08-05T02:48:13.007Z,80
2022-08-05T02:49:02.514Z,79
2022-08-05T02:50:02.471Z,80
2022-08-05T02:51:02.517Z,79
2022-08-05T02:52:04.784Z,79
2022-08-05T02:53:03.612Z,79
2022-08-05T02:54:04.530Z,79
2022-08-05T02:55:06.524Z,79
2022-08-05T02:56:02.690Z,79
2022-08-05T02:57:01.727Z,79
2022-08-05T02:58:21.773Z,79
2022-08-05T02:59:02.054Z,79
2022-08-05T03:00:02.024Z,80
2022-08-05T03:01:02.567Z,81
2022-08-05T03:02:02.024Z,81
2022-08-05T03:03:10.426Z,80
2022-08-05T03:04:12.878Z,80
2022-08-05T03:05:03.212Z,80
2022-08-05T03:06:59.090Z,80
2022-08-05T03:07:00.953Z,81
2022-08-05T03:08:09.438Z,81
2022-08-05T03:09:01.817Z,81
2022-08-05T03:10:02.554Z,80
2022-08-05T03:11:58.287Z,80
2022-08-05T03:12:02.255Z,80
2022-08-05T03:14:04.395Z,80
2022-08-05T03:15:02.256Z,80
2022-08-05T03:16:04.206Z,80
2022-08-05T03:17:09.132Z,80
2022-08-05T03:18:03.582Z,80
2022-08-05T03:19:17.292Z,80
2022-08-05T03:20:01.706Z,81
2022-08-05T03:21:03.420Z,81
2022-08-05T03:22:16.175Z,80
2022-08-05T03:23:04.373Z,83
2022-08-05T03:24:02.716Z,85
2022-08-05T03:26:04.245Z,87
2022-08-05T03:26:32.180Z,89
2022-08-05T03:27:02.446Z,92
2022-08-05T03:28:03.271Z,89
2022-08-05T03:29:02.081Z,89
2022-08-05T03:30:09.127Z,88
2022-08-05T03:31:02.173Z,90
2022-08-05T03:32:02.097Z,90
2022-08-05T03:33:02.012Z,92
2022-08-05T03:34:01.712Z,89
2022-08-05T03:35:04.756Z,89
2022-08-05T03:36:06.883Z,92
2022-08-05T03:37:02.235Z,89
2022-08-05T03:38:02.214Z,92
2022-08-05T03:39:02.178Z,93
2022-08-05T03:40:05.484Z,94
2022-08-05T03:41:10.905Z,91
2022-08-05T03:42:02.242Z,95
2022-08-05T03:44:11.209Z,92
2022-08-05T03:44:12.139Z,93
2022-08-05T03:45:23.199Z,91
2022-08-05T03:46:02.057Z,93
2022-08-05T03:47:03.821Z,93
2022-08-05T03:48:04.366Z,91
2022-08-05T03:49:02.469Z,92
2022-08-05T03:50:01.647Z,90
2022-08-05T03:53:12.429Z,90
2022-08-05T03:55:07.052Z,90
2022-08-05T03:56:06.431Z,91
2022-08-05T03:56:10.962Z,89
2022-08-05T03:56:17.274Z,88
2022-08-05T03:56:18.158Z,88
2022-08-05T03:57:18.022Z,89
2022-08-05T03:58:03.352Z,90
2022-08-05T03:59:02.137Z,93
2022-08-05T04:00:02.107Z,91
2022-08-05T04:01:04.398Z,92
2022-08-05T04:02:03.927Z,91
2022-08-05T04:03:02.015Z,91
2022-08-05T04:04:10.877Z,92
2022-08-05T04:05:01.840Z,90
2022-08-05T04:06:01.816Z,88
2022-08-05T04:07:04.228Z,91
2022-08-05T04:08:03.445Z,91
2022-08-05T04:09:04.167Z,89
2022-08-05T04:10:03.517Z,91
2022-08-05T04:11:02.481Z,91
2022-08-05T04:12:02.325Z,93
2022-08-05T04:13:04.642Z,93
2022-08-05T04:14:02.606Z,93
2022-08-05T04:15:01.581Z,93
2022-08-05T04:16:05.098Z,91
2022-08-05T04:17:03.244Z,90
2022-08-05T04:18:01.612Z,90
2022-08-05T04:19:10.787Z,96
2022-08-05T04:20:02.705Z,98
2022-08-05T04:21:01.799Z,97
2022-08-05T04:22:11.919Z,97
2022-08-05T04:23:01.729Z,97
2022-08-05T04:24:08.975Z,97
2022-08-05T04:25:02.329Z,96
2022-08-05T04:26:04.767Z,97
2022-08-05T04:27:01.617Z,96
2022-08-05T04:28:13.196Z,96
2022-08-05T04:29:07.660Z,96
2022-08-05T04:30:04.084Z,98
2022-08-05T04:31:08.496Z,99
2022-08-05T04:32:02.791Z,100
2022-08-05T04:33:01.773Z,100
2022-08-05T04:34:34.646Z,100
2022-08-05T04:35:04.866Z,100
2022-08-05T04:36:46.659Z,100
2022-08-05T04:37:03.541Z,100
2022-08-05T04:38:07.097Z,100
2022-08-05T04:39:03.096Z,100
2022-08-05T04:40:03.858Z,100
2022-08-05T04:41:03.758Z,100
2022-08-05T04:42:04.008Z,100
2022-08-05T04:43:01.876Z,100
2022-08-05T04:44:09.951Z,100
2022-08-05T04:45:03.154Z,100
2022-08-05T04:46:02.167Z,100
2022-08-05T04:47:10.432Z,100
2022-08-05T04:48:01.602Z,100
2022-08-05T04:49:02.576Z,100
2022-08-05T04:50:11.876Z,100
2022-08-05T04:51:11.707Z,100
2022-08-05T04:52:01.685Z,100
2022-08-05T04:53:02.633Z,100
2022-08-05T04:54:02.645Z,100
2022-08-05T04:55:15.374Z,100
2022-08-05T04:56:36.897Z,100
2022-08-05T04:57:02.273Z,100
2022-08-05T04:58:01.723Z,100
2022-08-05T04:59:36.628Z,100
2022-08-05T05:00:02.477Z,100
2022-08-05T05:01:04.536Z,100
2022-08-05T05:02:41.604Z,100
2022-08-05T05:03:04.232Z,100
2022-08-05T05:04:04.844Z,100
2022-08-05T05:05:03.504Z,100
2022-08-05T05:06:49.426Z,100
2022-08-05T05:07:02.632Z,100
2022-08-05T05:08:02.781Z,100
2022-08-05T05:09:05.736Z,100
2022-08-05T05:10:03.270Z,100
2022-08-05T05:11:02.127Z,100
2022-08-05T05:12:03.404Z,100
2022-08-05T05:13:04.678Z,100
2022-08-05T05:14:02.377Z,100
2022-08-05T05:15:04.228Z,100
2022-08-05T05:16:07.381Z,100
2022-08-05T05:17:03.670Z,100
2022-08-05T05:18:02.563Z,100
2022-08-05T05:19:23.736Z,100
2022-08-05T05:20:05.552Z,100
2022-08-05T05:21:02.027Z,100
2022-08-05T05:22:26.259Z,100
2022-08-05T05:23:19.682Z,100
2022-08-05T05:24:09.377Z,100
2022-08-05T05:25:17.567Z,100
2022-08-05T05:26:02.548Z,100
2022-08-05T05:27:02.484Z,100
2022-08-05T05:28:01.558Z,100
2022-08-05T05:29:02.802Z,100
2022-08-05T05:30:05.479Z,100
2022-08-05T05:31:05.882Z,100
2022-08-05T05:32:04.139Z,100
2022-08-05T05:33:17.280Z,100
2022-08-05T05:34:03.047Z,100
2022-08-05T05:35:03.450Z,100
2022-08-05T05:36:01.844Z,100
2022-08-05T05:37:05.891Z,100
2022-08-05T05:38:02.707Z,100
2022-08-05T05:39:04.683Z,100
2022-08-05T05:40:02.131Z,100
2022-08-05T05:41:02.060Z,100
2022-08-05T05:42:01.926Z,100
2022-08-05T05:43:02.429Z,100
2022-08-05T05:44:02.266Z,100
2022-08-05T05:45:03.843Z,100
2022-08-05T05:46:02.488Z,100
2022-08-05T05:47:13.132Z,100
2022-08-05T05:48:08.709Z,100
2022-08-05T05:49:13.009Z,100
2022-08-05T05:50:04.433Z,100
2022-08-05T05:51:16.063Z,100
2022-08-05T05:52:07.377Z,100
2022-08-05T05:53:22.192Z,100
2022-08-05T05:54:01.681Z,100
2022-08-05T05:55:13.474Z,100
2022-08-05T05:56:03.514Z,100
2022-08-05T05:57:02.955Z,100
2022-08-05T05:58:04.710Z,100
2022-08-05T05:59:04.040Z,100
2022-08-05T06:00:02.347Z,100
2022-08-05T06:01:15.863Z,100
2022-08-05T06:02:01.764Z,100
2022-08-05T06:03:02.252Z,100
2022-08-05T06:04:04.518Z,100
2022-08-05T06:05:16.207Z,100
2022-08-05T06:06:02.402Z,100
2022-08-05T06:07:01.977Z,100
2022-08-05T06:08:04.215Z,100
2022-08-05T06:09:04.238Z,100
2022-08-05T06:10:10.110Z,100
2022-08-05T06:11:04.330Z,100
2022-08-05T06:12:03.217Z,100
2022-08-05T06:13:02.224Z,100
2022-08-05T06:14:02.505Z,100
2022-08-05T06:15:02.322Z,99
2022-08-05T06:16:32.580Z,99
2022-08-05T06:17:24.586Z,98
2022-08-05T06:18:01.885Z,99
2022-08-05T06:19:07.247Z,99
2022-08-05T06:20:01.887Z,100
2022-08-05T06:21:01.823Z,100
2022-08-05T06:22:01.641Z,99
2022-08-05T06:23:04.361Z,99
2022-08-05T06:24:03.058Z,99
2022-08-05T06:25:59.946Z,100
2022-08-05T06:26:23.970Z,100
2022-08-05T06:27:04.351Z,99
2022-08-05T06:28:21.019Z,99
2022-08-05T06:29:24.725Z,98
2022-08-05T06:30:18.036Z,97
2022-08-05T06:31:17.761Z,97
2022-08-05T06:32:02.649Z,97
2022-08-05T06:33:02.339Z,98
2022-08-05T06:34:09.077Z,97
2022-08-05T06:35:15.194Z,97
2022-08-05T06:36:10.022Z,98
2022-08-05T06:37:02.119Z,97
2022-08-05T06:38:11.788Z,96
2022-08-05T06:39:03.751Z,95
2022-08-05T06:40:02.845Z,95
2022-08-05T06:41:03.509Z,96
2022-08-05T06:42:04.534Z,96
2022-08-05T06:43:02.433Z,94
2022-08-05T06:44:02.990Z,96
2022-08-05T06:45:08.436Z,95
2022-08-05T06:46:07.605Z,92
2022-08-05T06:47:03.369Z,94
2022-08-05T06:48:55.913Z,94
2022-08-05T06:49:02.711Z,94
2022-08-05T06:50:05.833Z,93
2022-08-05T06:51:10.306Z,92
2022-08-05T06:52:01.993Z,92
2022-08-05T06:53:19.544Z,93
2022-08-05T06:54:02.758Z,93
2022-08-05T06:55:02.729Z,93
2022-08-05T06:56:01.694Z,92
2022-08-05T06:58:20.417Z,93
2022-08-05T06:58:30.351Z,93
2022-08-05T06:59:02.784Z,93
2022-08-05T07:00:01.832Z,91
2022-08-05T07:01:02.466Z,91
2022-08-05T07:02:02.534Z,92
2022-08-05T07:03:01.760Z,91
2022-08-05T07:04:02.997Z,90
2022-08-05T07:05:02.028Z,91
2022-08-05T07:06:13.760Z,90
2022-08-05T07:07:02.117Z,91
2022-08-05T07:08:02.708Z,91
2022-08-05T07:09:04.839Z,90
2022-08-05T07:10:03.832Z,89
2022-08-05T07:11:02.325Z,89
2022-08-05T07:12:02.504Z,90
2022-08-05T07:13:02.502Z,91
2022-08-05T07:14:02.312Z,91
2022-08-05T07:15:03.706Z,89
2022-08-05T07:16:04.991Z,91
2022-08-05T07:18:08.825Z,91
2022-08-05T07:18:12.631Z,90
2022-08-05T07:19:02.071Z,90
2022-08-05T07:20:33.984Z,90
2022-08-05T07:21:05.766Z,91
2022-08-05T07:22:03.002Z,89
2022-08-05T07:23:04.729Z,89
2022-08-05T07:24:01.708Z,90
2022-08-05T07:25:54.605Z,90
2022-08-05T07:26:02.428Z,90
2022-08-05T07:27:03.175Z,89
2022-08-05T07:28:11.558Z,88
2022-08-05T07:29:02.337Z,86
2022-08-05T07:30:30.963Z,89
2022-08-05T07:31:02.786Z,87
2022-08-05T07:32:04.303Z,85
2022-08-05T07:33:10.331Z,84
2022-08-05T07:34:02.689Z,84
2022-08-05T07:36:20.510Z,84
2022-08-05T07:36:21.902Z,84
2022-08-05T07:37:01.767Z,83
2022-08-05T07:38:01.706Z,84
2022-08-05T07:39:06.066Z,79
2022-08-05T07:40:32.753Z,78
2022-08-05T07:42:14.858Z,78
2022-08-05T07:42:15.500Z,81
2022-08-05T07:43:20.582Z,81
2022-08-05T07:44:02.059Z,83
2022-08-05T07:45:01.755Z,81
2022-08-05T07:46:02.924Z,82
2022-08-05T07:47:08.216Z,81
2022-08-05T07:48:02.376Z,81
2022-08-05T07:49:07.780Z,80
2022-08-05T07:50:07.004Z,75
2022-08-05T07:51:01.861Z,76
2022-08-05T07:52:02.142Z,75
2022-08-05T07:53:04.588Z,76
2022-08-05T07:54:02.268Z,77
2022-08-05T07:55:03.869Z,77
2022-08-05T07:57:01.017Z,79
2022-08-05T07:57:59.067Z,76
2022-08-05T07:58:03.463Z,77
2022-08-05T07:59:01.994Z,75
2022-08-05T08:00:01.801Z,78
2022-08-05T08:01:12.608Z,77
2022-08-05T08:02:03.447Z,74
2022-08-05T08:03:16.106Z,73
2022-08-05T08:04:01.938Z,75
2022-08-05T08:05:02.077Z,73
2022-08-05T08:06:01.825Z,70
2022-08-05T08:07:07.616Z,69
2022-08-05T08:08:02.525Z,68
2022-08-05T08:09:03.486Z,71
2022-08-05T08:10:02.460Z,68
2022-08-05T08:11:02.530Z,69
2022-08-05T08:12:20.170Z,69
2022-08-05T08:13:02.442Z,68
2022-08-05T08:14:03.989Z,69
2022-08-05T08:15:04.287Z,70
2022-08-05T08:16:50.586Z,68
2022-08-05T08:17:02.243Z,67
2022-08-05T08:18:07.015Z,64
2022-08-05T08:19:02.548Z,64
2022-08-05T08:21:00.856Z,65
2022-08-05T08:21:15.924Z,66
2022-08-05T08:22:01.655Z,67
2022-08-05T08:23:03.499Z,67
2022-08-05T08:24:06.839Z,66
2022-08-05T08:25:15.601Z,66
2022-08-05T08:26:04.942Z,67
2022-08-05T08:27:07.437Z,67
2022-08-05T08:28:01.853Z,68
2022-08-05T08:30:04.958Z,65
2022-08-05T08:30:30.308Z,65
2022-08-05T08:31:04.657Z,67
2022-08-05T08:32:04.591Z,62
2022-08-05T08:33:08.143Z,62
2022-08-05T08:34:02.450Z,63
2022-08-05T08:35:03.046Z,65
2022-08-05T08:36:47.464Z,63
2022-08-05T08:37:05.521Z,65
2022-08-05T08:38:02.564Z,62
2022-08-05T08:39:03.392Z,60
2022-08-05T08:40:04.870Z,59
2022-08-05T08:41:04.102Z,59
2022-08-05T08:42:06.503Z,60
2022-08-05T08:45:26.507Z,60
2022-08-05T08:45:26.847Z,61
2022-08-05T08:45:26.865Z,61
2022-08-05T08:46:02.024Z,59
2022-08-05T08:47:02.948Z,58
2022-08-05T08:48:43.816Z,58
2022-08-05T08:50:14.777Z,58
2022-08-05T08:51:04.310Z,57
2022-08-05T08:52:01.781Z,55
2022-08-05T08:52:06.291Z,55
2022-08-05T08:53:12.122Z,55
2022-08-05T08:54:02.340Z,56
2022-08-05T08:55:01.715Z,56
2022-08-05T08:56:06.568Z,57
2022-08-05T08:57:02.635Z,57
2022-08-05T08:58:03.495Z,58
2022-08-05T08:59:19.548Z,57
2022-08-05T09:00:04.631Z,58
2022-08-05T09:01:02.794Z,56
2022-08-05T09:02:02.007Z,56
2022-08-05T09:03:01.836Z,55
2022-08-05T09:04:01.795Z,52
2022-08-05T09:05:18.574Z,51
2022-08-05T09:06:12.904Z,52
2022-08-05T09:07:19.511Z,52
2022-08-05T09:08:02.535Z,52
2022-08-05T09:09:02.491Z,53
2022-08-05T09:10:02.435Z,53
2022-08-05T09:11:01.973Z,54
2022-08-05T09:12:27.163Z,52
2022-08-05T09:13:05.647Z,52
2022-08-05T09:15:04.867Z,49
2022-08-05T09:15:06.671Z,48
2022-08-05T09:16:02.659Z,48
2022-08-05T09:17:04.477Z,50
2022-08-05T09:18:03.109Z,46
2022-08-05T09:19:07.294Z,49
2022-08-05T09:20:05.765Z,49
2022-08-05T09:21:02.051Z,49
2022-08-05T09:22:31.447Z,48
2022-08-05T09:23:08.013Z,48
2022-08-05T09:24:02.838Z,48
2022-08-05T09:25:01.629Z,48
2022-08-05T09:26:06.796Z,48
2022-08-05T09:27:02.861Z,47
2022-08-05T09:28:06.570Z,47
2022-08-05T09:29:02.461Z,46
2022-08-05T09:30:06.828Z,47
2022-08-05T09:32:39.537Z,46
2022-08-05T09:32:46.256Z,44
2022-08-05T09:33:02.497Z,42
2022-08-05T09:34:01.908Z,43
2022-08-05T09:35:02.926Z,43
2022-08-05T09:36:16.318Z,45
2022-08-05T09:37:02.546Z,48
2022-08-05T09:38:18.801Z,47
2022-08-05T09:39:02.868Z,45
2022-08-05T09:40:01.936Z,46
2022-08-05T09:41:04.228Z,46
2022-08-05T09:42:03.753Z,47
2022-08-05T09:43:02.166Z,46
2022-08-05T09:44:01.879Z,45
2022-08-05T09:46:07.953Z,44
2022-08-05T09:46:08.654Z,43
2022-08-05T09:47:12.563Z,42
2022-08-05T09:48:01.967Z,42
2022-08-05T09:49:19.314Z,41
2022-08-05T09:50:03.811Z,42
2022-08-05T09:51:01.676Z,44
2022-08-05T09:52:02.647Z,43
2022-08-05T09:53:02.155Z,44
2022-08-05T09:54:02.474Z,43
2022-08-05T09:56:03.592Z,43
2022-08-05T09:56:13.588Z,42
2022-08-05T09:57:02.306Z,43
2022-08-05T09:58:02.138Z,44
2022-08-05T09:59:04.435Z,44
2022-08-05T10:00:07.847Z,43
2022-08-05T10:01:15.525Z,43
2022-08-05T10:02:02.307Z,43
2022-08-05T10:03:02.856Z,44
2022-08-05T10:04:01.787Z,41
2022-08-05T10:05:03.259Z,42
2022-08-05T10:06:07.729Z,42
2022-08-05T10:07:06.106Z,40
2022-08-05T10:08:37.940Z,41
2022-08-05T10:09:03.323Z,42
2022-08-05T10:10:15.788Z,42
2022-08-05T10:11:02.954Z,42
2022-08-05T10:12:30.863Z,42
2022-08-05T10:13:10.084Z,42
2022-08-05T10:14:02.055Z,42
2022-08-05T10:15:01.920Z,41
2022-08-05T10:16:02.325Z,42
2022-08-05T10:17:05.766Z,41
2022-08-05T10:18:01.859Z,41
2022-08-05T10:19:09.560Z,43
2022-08-05T10:20:10.906Z,39
2022-08-05T10:21:12.029Z,40
2022-08-05T10:22:03.896Z,41
2022-08-05T10:23:01.802Z,41
2022-08-05T10:24:09.060Z,40
2022-08-05T10:25:01.911Z,41
2022-08-05T10:26:01.874Z,41
2022-08-05T10:27:02.770Z,41
2022-08-05T10:28:19.313Z,41
2022-08-05T10:29:02.348Z,39
2022-08-05T10:31:21.132Z,39
2022-08-05T10:32:59.723Z,40
2022-08-05T10:33:01.584Z,40
2022-08-05T10:34:02.447Z,39
2022-08-05T10:35:02.469Z,38
2022-08-05T10:36:02.757Z,39
2022-08-05T10:37:01.839Z,39
2022-08-05T10:38:02.219Z,40
2022-08-05T10:39:11.937Z,39
2022-08-05T10:40:18.952Z,37
2022-08-05T10:41:04.419Z,37
2022-08-05T10:42:02.167Z,37
2022-08-05T10:43:01.774Z,37
2022-08-05T10:44:05.868Z,37
2022-08-05T10:45:01.869Z,37
2022-08-05T10:46:07.270Z,37
2022-08-05T10:47:26.350Z,37
2022-08-05T10:48:34.419Z,37
2022-08-05T10:49:10.560Z,38
2022-08-05T10:50:36.752Z,37
2022-08-05T10:51:04.303Z,37
2022-08-05T10:52:05.184Z,37
2022-08-05T10:53:02.250Z,38
2022-08-05T10:54:30.000Z,38
2022-08-05T10:55:02.520Z,37
2022-08-05T10:56:21.734Z,38
2022-08-05T10:57:02.037Z,37
2022-08-05T10:58:02.576Z,38
2022-08-05T10:59:12.859Z,37
2022-08-05T11:00:18.449Z,37
2022-08-05T11:01:03.449Z,36
2022-08-05T11:02:05.714Z,37
2022-08-05T11:03:26.804Z,37
2022-08-05T11:04:02.229Z,36
2022-08-05T11:05:02.686Z,35
2022-08-05T11:06:04.262Z,36
2022-08-05T11:07:02.546Z,34
2022-08-05T11:08:36.897Z,34
2022-08-05T11:09:02.705Z,36
2022-08-05T11:10:09.767Z,35
2022-08-05T11:11:16.616Z,36
2022-08-05T11:12:01.727Z,35
2022-08-05T11:13:02.208Z,35
2022-08-05T11:14:03.212Z,35
2022-08-05T11:15:21.096Z,35
2022-08-05T11:16:02.430Z,35
2022-08-05T11:18:01.732Z,36
2022-08-05T11:18:04.455Z,33
2022-08-05T11:20:18.229Z,34
2022-08-05T11:20:18.458Z,34
2022-08-05T11:21:02.188Z,34
2022-08-05T11:22:03.548Z,35
2022-08-05T11:23:10.399Z,35
2022-08-05T11:24:31.025Z,35
2022-08-05T11:26:08.725Z,35
2022-08-05T11:26:08.996Z,35
2022-08-05T11:27:01.829Z,34
2022-08-05T11:28:03.939Z,34
2022-08-05T11:29:14.496Z,34
2022-08-05T11:30:02.388Z,35
2022-08-05T11:31:06.843Z,34
2022-08-05T11:32:03.781Z,34
2022-08-05T11:33:05.012Z,35
2022-08-05T11:34:03.848Z,34
2022-08-05T11:35:01.988Z,33
2022-08-05T11:36:09.065Z,33
2022-08-05T11:38:26.971Z,34
2022-08-05T11:38:45.599Z,34
2022-08-05T11:39:02.114Z,34
2022-08-05T11:40:04.148Z,34
2022-08-05T11:41:58.444Z,33
2022-08-05T11:42:04.959Z,33
2022-08-05T11:43:03.213Z,33
2022-08-05T11:44:08.427Z,32
2022-08-05T11:45:03.223Z,32
2022-08-05T11:46:33.206Z,32
2022-08-05T11:47:18.606Z,33
2022-08-05T11:48:03.608Z,32
2022-08-05T11:49:02.524Z,32
2022-08-05T11:50:02.330Z,33
2022-08-05T11:51:01.608Z,32
2022-08-05T11:52:12.190Z,31
2022-08-05T11:53:09.790Z,33
2022-08-05T11:54:02.625Z,32
2022-08-05T11:55:10.547Z,32
2022-08-05T11:56:05.831Z,33
2022-08-05T11:57:24.201Z,33
2022-08-05T11:58:12.153Z,33
2022-08-05T11:59:02.286Z,32
2022-08-05T12:00:02.698Z,32
2022-08-05T12:01:04.877Z,32
2022-08-05T12:02:02.260Z,32
2022-08-05T12:03:02.332Z,33
2022-08-05T12:04:02.569Z,32
2022-08-05T12:05:18.215Z,32
2022-08-05T12:06:02.491Z,33
2022-08-05T12:07:02.417Z,32
2022-08-05T12:08:11.180Z,32
2022-08-05T12:09:02.334Z,33
2022-08-05T12:10:11.536Z,33
2022-08-05T12:11:06.436Z,33
2022-08-05T12:12:02.927Z,33
2022-08-05T12:13:03.177Z,33
2022-08-05T12:14:04.713Z,34
2022-08-05T12:15:03.470Z,34
2022-08-05T12:16:01.824Z,33
2022-08-05T12:17:01.818Z,33
2022-08-05T12:18:12.045Z,33
2022-08-05T12:19:02.210Z,33
2022-08-05T12:20:33.360Z,33
2022-08-05T12:21:03.709Z,33
2022-08-05T12:22:02.540Z,33
2022-08-05T12:23:05.171Z,33
2022-08-05T12:24:06.807Z,32
2022-08-05T12:25:02.340Z,32
2022-08-05T12:26:02.321Z,32
2022-08-05T12:27:25.261Z,33
2022-08-05T12:28:02.746Z,33
2022-08-05T12:29:03.588Z,33
2022-08-05T12:30:03.734Z,33
2022-08-05T12:31:02.916Z,33
2022-08-05T12:32:04.696Z,33
2022-08-05T12:33:36.104Z,33
2022-08-05T12:34:03.365Z,32
2022-08-05T12:35:04.422Z,32
2022-08-05T12:36:02.851Z,32
2022-08-05T12:37:03.731Z,32
2022-08-05T12:38:03.362Z,31
2022-08-05T12:39:06.970Z,32
2022-08-05T12:40:11.289Z,32
2022-08-05T12:41:02.322Z,31
2022-08-05T12:42:02.252Z,31
2022-08-05T12:43:02.081Z,32
2022-08-05T12:44:02.733Z,31
2022-08-05T12:45:02.001Z,31
2022-08-05T12:46:02.821Z,31
2022-08-05T12:47:02.354Z,32
2022-08-05T12:48:33.132Z,31
2022-08-05T12:49:14.249Z,32
2022-08-05T12:50:07.282Z,31
2022-08-05T12:51:04.289Z,31
2022-08-05T12:52:24.096Z,31
2022-08-05T12:53:02.482Z,31
2022-08-05T12:54:03.972Z,31
2022-08-05T12:55:02.363Z,32
2022-08-05T12:56:02.308Z,31
2022-08-05T12:57:04.007Z,32
2022-08-05T12:58:57.014Z,32
2022-08-05T12:59:08.027Z,33
2022-08-05T13:02:07.037Z,32
2022-08-05T13:02:07.267Z,32
2022-08-05T13:02:08.218Z,32
2022-08-05T13:03:03.289Z,32
2022-08-05T13:04:07.771Z,32
2022-08-05T13:05:03.676Z,33
2022-08-05T13:06:02.630Z,32
2022-08-05T13:07:10.744Z,32
2022-08-05T13:08:04.505Z,32
2022-08-05T13:09:01.781Z,32
2022-08-05T13:10:01.768Z,32
2022-08-05T13:11:01.819Z,32
2022-08-05T13:12:04.011Z,32
2022-08-05T13:13:02.975Z,32
2022-08-05T13:14:07.734Z,32
2022-08-05T13:15:09.104Z,32
2022-08-05T13:16:03.254Z,32
2022-08-05T13:17:04.271Z,32
2022-08-05T13:18:02.141Z,32
2022-08-05T13:19:02.511Z,31
2022-08-05T13:20:02.908Z,31
2022-08-05T13:21:04.401Z,31
2022-08-05T13:22:03.337Z,31
2022-08-05T13:23:07.561Z,31
2022-08-05T13:24:04.673Z,31
2022-08-05T13:25:08.067Z,31
2022-08-05T13:26:01.785Z,31
2022-08-05T13:27:01.674Z,32
2022-08-05T13:28:03.884Z,32
2022-08-05T13:29:01.789Z,31
2022-08-05T13:30:39.371Z,31
2022-08-05T13:31:14.676Z,32
2022-08-05T13:32:05.457Z,32
2022-08-05T13:33:02.555Z,32
2022-08-05T13:34:26.397Z,33
2022-08-05T13:35:02.469Z,32
2022-08-05T13:36:05.477Z,31
2022-08-05T13:37:02.312Z,30
2022-08-05T13:38:06.156Z,31
2022-08-05T13:39:24.204Z,31
2022-08-05T13:40:20.215Z,31
2022-08-05T13:41:03.622Z,31
2022-08-05T13:42:02.867Z,32
2022-08-05T13:43:01.688Z,32
2022-08-05T13:44:02.405Z,31
2022-08-05T13:45:01.792Z,31
2022-08-05T13:46:04.343Z,31
2022-08-05T13:47:09.327Z,30
2022-08-05T13:48:56.922Z,30
2022-08-05T13:49:04.446Z,30
2022-08-05T13:50:06.353Z,32
2022-08-05T13:51:01.843Z,31
2022-08-05T13:52:02.558Z,30
2022-08-05T13:53:01.601Z,29
2022-08-05T13:54:03.077Z,29
2022-08-05T13:55:09.637Z,28
2022-08-05T13:56:02.590Z,28
2022-08-05T13:57:02.489Z,28
2022-08-05T13:58:02.310Z,28
2022-08-05T13:59:19.346Z,29
2022-08-05T14:00:03.137Z,29
2022-08-05T14:01:02.519Z,28
2022-08-05T14:02:02.473Z,28
2022-08-05T14:03:02.390Z,28
2022-08-05T14:04:02.016Z,28
2022-08-05T14:05:01.970Z,28
2022-08-05T14:06:27.183Z,29
2022-08-05T14:07:56.740Z,29
2022-08-05T14:08:27.634Z,29
2022-08-05T14:09:08.779Z,29
2022-08-05T14:10:01.869Z,28
2022-08-05T14:11:22.141Z,28
2022-08-05T14:12:32.049Z,29
2022-08-05T14:13:02.493Z,27